createdAt,value
2023-01-23T00:00:56.481Z,29.63
2023-01-23T00:03:25.363Z,28.73
2023-01-23T00:06:01.140Z,28.20
2023-01-23T00:08:29.864Z,31.33
2023-01-23T00:10:58.479Z,30.80
2023-01-23T00:13:27.166Z,31.47
2023-01-23T00:15:55.620Z,29.63
2023-01-23T00:18:24.049Z,31.47
2023-01-23T00:20:52.745Z,31.93
2023-01-23T00:23:22.644Z,28.40
2023-01-23T00:25:50.773Z,28.90
2023-01-23T00:28:18.874Z,30.83
2023-01-23T00:30:47.006Z,31.87
2023-01-23T00:33:15.531Z,34.07
2023-01-23T00:35:43.594Z,32.60
2023-01-23T00:38:11.762Z,33.13
2023-01-23T00:40:41.516Z,33.07
2023-01-23T00:43:09.588Z,31.87
2023-01-23T00:45:38.069Z,31.23
2023-01-23T00:48:06.964Z,32.13
2023-01-23T00:50:35.051Z,31.23
2023-01-23T00:53:04.599Z,32.70
2023-01-23T00:55:32.635Z,33.67
2023-01-23T00:58:02.912Z,31.57
2023-01-23T01:00:32.094Z,32.10
2023-01-23T01:03:00.305Z,33.07
2023-01-23T01:05:29.024Z,32.77
2023-01-23T01:07:57.217Z,28.93
2023-01-23T01:10:29.311Z,29.47
2023-01-23T01:12:57.663Z,30.67
2023-01-23T01:15:28.164Z,30.17
2023-01-23T01:17:57.865Z,29.67
2023-01-23T01:20:27.791Z,29.53
2023-01-23T01:22:58.105Z,29.33
2023-01-23T01:25:26.640Z,28.70
2023-01-23T01:27:56.356Z,28.63
2023-01-23T01:30:27.202Z,29.23
2023-01-23T01:32:56.413Z,29.20
2023-01-23T01:35:25.346Z,29.63
2023-01-23T01:37:53.796Z,29.73
2023-01-23T01:40:23.514Z,28.90
2023-01-23T01:42:54.168Z,29.30
2023-01-23T01:45:40.973Z,29.03
2023-01-23T01:48:10.733Z,27.63
2023-01-23T01:50:41.589Z,29.83
2023-01-23T01:53:10.890Z,29.70
2023-01-23T01:55:39.916Z,29.17
2023-01-23T01:58:09.187Z,28.47
2023-01-23T02:00:38.152Z,29.07
2023-01-23T02:03:07.920Z,26.60
2023-01-23T02:05:39.053Z,28.17
2023-01-23T02:08:11.058Z,24.97
2023-01-23T02:10:40.539Z,27.13
2023-01-23T02:13:23.160Z,26.47
2023-01-23T02:15:52.987Z,25.93
2023-01-23T02:18:22.067Z,23.70
2023-01-23T02:20:53.618Z,25.47
2023-01-23T02:23:26.337Z,25.20
2023-01-23T02:25:59.989Z,23.23
2023-01-23T02:28:38.978Z,23.43
2023-01-23T02:31:08.342Z,25.93
2023-01-23T02:33:47.696Z,24.30
2023-01-23T02:36:16.846Z,22.80
2023-01-23T02:38:57.814Z,24.33
2023-01-23T02:41:30.210Z,23.57
2023-01-23T02:44:01.334Z,20.73
2023-01-23T02:46:29.781Z,22.47
2023-01-23T02:48:59.094Z,22.23
2023-01-23T02:51:27.630Z,21.13
2023-01-23T02:53:56.027Z,21.23
2023-01-23T02:56:24.521Z,21.67
2023-01-23T02:59:11.948Z,20.23
2023-01-23T03:01:40.392Z,21.87
2023-01-23T03:04:10.054Z,22.33
2023-01-23T03:06:39.360Z,24.97
2023-01-23T03:09:10.458Z,24.10
2023-01-23T03:11:40.491Z,26.43
2023-01-23T03:14:11.504Z,25.70
2023-01-23T03:16:41.381Z,26.20
2023-01-23T03:19:10.477Z,26.13
2023-01-23T03:21:40.331Z,23.90
2023-01-23T03:24:10.967Z,23.80
2023-01-23T03:26:40.482Z,24.23
2023-01-23T03:29:34.467Z,24.50
2023-01-23T03:32:03.456Z,24.27
2023-01-23T03:34:32.475Z,27.80
2023-01-23T03:37:01.407Z,25.10
2023-01-23T03:39:49.112Z,24.07
2023-01-23T03:42:19.363Z,23.53
2023-01-23T03:44:51.038Z,23.03
2023-01-23T03:47:20.868Z,25.27
2023-01-23T03:49:49.305Z,22.27
2023-01-23T03:52:17.886Z,24.33
2023-01-23T03:54:46.271Z,23.40
2023-01-23T03:57:15.643Z,25.03
2023-01-23T03:59:51.427Z,22.90
2023-01-23T04:02:22.581Z,24.87
2023-01-23T04:04:50.989Z,25.03
2023-01-23T04:07:20.260Z,26.00
2023-01-23T04:09:48.857Z,25.93
2023-01-23T04:12:18.021Z,26.67
2023-01-23T04:14:51.333Z,25.53
2023-01-23T04:17:19.757Z,27.03
2023-01-23T04:19:48.228Z,26.00
2023-01-23T04:22:17.027Z,25.73
2023-01-23T04:24:50.018Z,25.13
2023-01-23T04:27:18.419Z,25.53
2023-01-23T04:29:48.047Z,26.33
2023-01-23T04:32:17.941Z,24.27
2023-01-23T04:34:48.432Z,23.77
2023-01-23T04:37:16.660Z,23.90
2023-01-23T04:39:45.066Z,23.33
2023-01-23T04:42:14.463Z,24.47
2023-01-23T04:44:51.441Z,25.13
2023-01-23T04:47:38.934Z,23.50
2023-01-23T04:50:11.909Z,23.47
2023-01-23T04:52:43.172Z,24.97
2023-01-23T04:55:12.062Z,22.03
2023-01-23T04:57:40.808Z,21.63
2023-01-23T05:00:17.366Z,21.83
2023-01-23T05:02:48.998Z,22.17
2023-01-23T05:05:21.332Z,22.47
2023-01-23T05:07:53.079Z,23.47
2023-01-23T05:10:21.908Z,22.17
2023-01-23T05:12:51.315Z,22.33
2023-01-23T05:15:21.204Z,24.63
2023-01-23T05:17:52.981Z,22.93
2023-01-23T05:20:23.511Z,24.50
2023-01-23T05:22:57.608Z,25.17
2023-01-23T05:25:34.404Z,24.23
2023-01-23T05:28:03.019Z,25.00
2023-01-23T05:30:33.243Z,25.30
2023-01-23T05:33:27.567Z,24.07
2023-01-23T05:36:00.114Z,24.03
2023-01-23T05:38:28.591Z,25.07
2023-01-23T05:40:57.082Z,25.00
2023-01-23T05:44:00.689Z,25.73
2023-01-23T05:46:43.375Z,24.27
2023-01-23T05:49:13.549Z,26.40
2023-01-23T05:51:42.150Z,25.23
2023-01-23T05:54:11.547Z,25.00
2023-01-23T05:56:43.542Z,23.80
2023-01-23T05:59:30.475Z,25.30
2023-01-23T06:02:13.787Z,24.67
2023-01-23T06:04:48.652Z,22.83
2023-01-23T06:07:37.548Z,21.20
2023-01-23T06:10:10.174Z,23.80
2023-01-23T06:12:38.894Z,23.23
2023-01-23T06:15:08.008Z,22.70
2023-01-23T06:17:36.556Z,23.47
2023-01-23T06:20:08.075Z,20.77
2023-01-23T06:22:37.763Z,21.50
2023-01-23T06:25:12.858Z,22.20
2023-01-23T06:27:41.636Z,22.23
2023-01-23T06:30:11.853Z,21.97
2023-01-23T06:32:47.401Z,22.37
2023-01-23T06:35:22.486Z,21.33
2023-01-23T06:37:51.331Z,19.37
2023-01-23T06:40:21.961Z,19.93
2023-01-23T06:43:02.948Z,21.67
2023-01-23T06:45:31.661Z,18.33
2023-01-23T06:48:00.110Z,20.67
2023-01-23T06:50:31.127Z,19.33
2023-01-23T06:52:59.695Z,18.00
2023-01-23T06:55:28.365Z,19.13
2023-01-23T06:57:56.915Z,18.27
2023-01-23T07:00:27.100Z,19.37
2023-01-23T07:02:59.167Z,18.67
2023-01-23T07:05:28.011Z,18.53
2023-01-23T07:07:59.330Z,19.50
2023-01-23T07:10:28.170Z,20.40
2023-01-23T07:12:56.978Z,19.37
2023-01-23T07:15:25.380Z,20.83
2023-01-23T07:17:53.990Z,19.97
2023-01-23T07:20:23.061Z,20.57
2023-01-23T07:22:57.801Z,19.20
2023-01-23T07:25:26.871Z,19.10
2023-01-23T07:27:55.350Z,19.10
2023-01-23T07:30:23.900Z,20.03
2023-01-23T07:32:52.337Z,21.57
2023-01-23T07:35:21.175Z,21.00
2023-01-23T07:37:49.581Z,20.13
2023-01-23T07:40:19.750Z,20.17
2023-01-23T07:42:48.388Z,22.47
2023-01-23T07:45:16.650Z,22.20
2023-01-23T07:47:45.696Z,21.57
2023-01-23T07:50:14.564Z,21.53
2023-01-23T07:52:42.794Z,20.57
2023-01-23T07:55:11.250Z,22.10
2023-01-23T07:57:40.787Z,21.17
2023-01-23T08:00:10.765Z,21.37
2023-01-23T08:02:41.723Z,21.60
2023-01-23T08:05:10.247Z,22.47
2023-01-23T08:07:38.388Z,23.37
2023-01-23T08:10:07.412Z,23.30
2023-01-23T08:12:35.974Z,22.17
2023-01-23T08:15:06.256Z,23.03
2023-01-23T08:17:34.472Z,22.73
2023-01-23T08:20:02.604Z,22.80
2023-01-23T08:22:31.991Z,23.30
2023-01-23T08:25:00.176Z,21.53
2023-01-23T08:27:28.324Z,23.63
2023-01-23T08:29:56.432Z,23.70
2023-01-23T08:32:26.092Z,23.50
2023-01-23T08:34:55.076Z,23.40
2023-01-23T08:37:25.649Z,23.47
2023-01-23T08:39:53.766Z,23.63
2023-01-23T08:42:21.832Z,23.20
2023-01-23T08:44:49.902Z,21.47
2023-01-23T08:47:17.987Z,21.37
2023-01-23T08:49:47.424Z,22.70
2023-01-23T08:52:15.571Z,24.03
2023-01-23T08:54:43.704Z,22.00
2023-01-23T08:57:11.807Z,22.20
2023-01-23T08:59:39.848Z,22.20
2023-01-23T09:02:08.281Z,22.33
2023-01-23T09:04:36.424Z,21.67
2023-01-23T09:07:05.980Z,23.77
2023-01-23T09:09:34.062Z,22.67
2023-01-23T09:12:02.238Z,22.10
2023-01-23T09:14:30.364Z,23.40
2023-01-23T09:16:58.503Z,21.83
2023-01-23T09:19:26.712Z,24.47
2023-01-23T09:21:57.073Z,22.90
2023-01-23T09:24:26.508Z,24.57
2023-01-23T09:26:55.036Z,22.33
2023-01-23T09:29:23.100Z,21.97
2023-01-23T09:31:51.291Z,21.37
2023-01-23T09:34:19.534Z,20.77
2023-01-23T09:36:47.640Z,21.90
2023-01-23T09:39:15.729Z,21.30
2023-01-23T09:41:47.161Z,21.40
2023-01-23T09:44:21.186Z,20.70
2023-01-23T09:46:52.550Z,21.27
2023-01-23T09:49:26.735Z,20.97
2023-01-23T09:52:00.080Z,22.97
2023-01-23T09:54:38.118Z,19.97
2023-01-23T09:57:16.647Z,22.27
2023-01-23T10:00:00.483Z,21.40
2023-01-23T10:02:29.301Z,21.23
2023-01-23T10:04:59.199Z,20.80
2023-01-23T10:07:56.751Z,19.73
2023-01-23T10:11:00.750Z,19.80
2023-01-23T10:13:37.810Z,20.57
2023-01-23T10:16:12.614Z,20.77
2023-01-23T10:18:46.420Z,20.70
2023-01-23T10:21:19.827Z,21.57
2023-01-23T10:23:50.002Z,21.97
2023-01-23T10:26:20.967Z,20.63
2023-01-23T10:28:52.396Z,20.83
2023-01-23T10:31:28.166Z,20.07
2023-01-23T10:34:05.444Z,20.50
2023-01-23T10:36:47.935Z,20.70
2023-01-23T10:39:27.480Z,19.10
2023-01-23T10:42:01.996Z,20.90
2023-01-23T10:44:32.267Z,21.50
2023-01-23T10:47:03.444Z,21.50
2023-01-23T10:49:35.140Z,21.77
2023-01-23T10:52:04.244Z,21.27
2023-01-23T10:54:35.170Z,20.73
2023-01-23T10:57:20.161Z,20.53
2023-01-23T10:59:54.889Z,20.20
2023-01-23T11:02:28.169Z,20.27
2023-01-23T11:04:56.784Z,20.53
2023-01-23T11:07:26.023Z,21.37
2023-01-23T11:09:56.579Z,20.70
2023-01-23T11:12:26.036Z,20.63
2023-01-23T11:15:13.017Z,21.07
2023-01-23T11:17:43.323Z,21.47
2023-01-23T11:20:25.512Z,20.87
2023-01-23T11:23:05.255Z,21.50
2023-01-23T11:25:34.412Z,21.37
2023-01-23T11:28:03.494Z,21.70
2023-01-23T11:30:36.629Z,22.27
2023-01-23T11:33:07.805Z,21.30
2023-01-23T11:35:46.268Z,21.23
2023-01-23T11:38:27.285Z,21.13
2023-01-23T11:40:58.530Z,21.10
2023-01-23T11:43:27.009Z,21.43
2023-01-23T11:46:15.452Z,21.30
2023-01-23T11:48:59.315Z,22.23
2023-01-23T11:51:30.867Z,21.30
2023-01-23T11:54:03.547Z,19.77
2023-01-23T11:56:40.032Z,21.03
2023-01-23T11:59:18.443Z,21.23
2023-01-23T12:02:03.061Z,20.80
2023-01-23T12:04:47.983Z,20.97
2023-01-23T12:07:21.358Z,19.57
2023-01-23T12:09:54.089Z,20.20
2023-01-23T12:12:28.695Z,19.33
2023-01-23T12:15:02.472Z,20.37
2023-01-23T12:17:38.462Z,21.57
2023-01-23T12:20:23.453Z,20.50
2023-01-23T12:22:58.454Z,19.40
2023-01-23T12:25:31.720Z,20.70
2023-01-23T12:28:04.589Z,21.33
2023-01-23T12:30:50.798Z,21.03
2023-01-23T12:33:28.684Z,20.33
2023-01-23T12:36:00.187Z,21.60
2023-01-23T12:38:34.420Z,19.87
2023-01-23T12:41:12.459Z,21.40
2023-01-23T12:43:44.300Z,22.53
2023-01-23T12:46:16.617Z,20.63
2023-01-23T12:48:48.583Z,21.17
2023-01-23T12:51:20.822Z,21.20
2023-01-23T12:53:51.753Z,22.10
2023-01-23T12:56:23.284Z,22.03
2023-01-23T12:58:55.554Z,21.37
2023-01-23T13:01:50.620Z,20.90
2023-01-23T13:04:24.927Z,21.80
2023-01-23T13:07:12.363Z,22.00
2023-01-23T13:09:51.185Z,20.57
2023-01-23T13:12:23.250Z,21.00
2023-01-23T13:15:12.922Z,20.03
2023-01-23T13:17:48.994Z,20.73
2023-01-23T13:20:43.288Z,21.03
2023-01-23T13:23:36.680Z,20.67
2023-01-23T13:26:26.469Z,21.23
2023-01-23T13:28:55.661Z,19.97
2023-01-23T13:31:28.461Z,20.10
2023-01-23T13:34:10.198Z,19.97
2023-01-23T13:36:44.287Z,20.27
2023-01-23T13:39:27.615Z,20.37
2023-01-23T13:42:15.095Z,20.03
2023-01-23T13:44:58.346Z,19.60
2023-01-23T14:22:45.467Z,18.73
2023-01-23T14:25:16.841Z,18.63
2023-01-23T14:27:54.589Z,17.90
2023-01-23T14:30:26.769Z,18.43
2023-01-23T14:32:55.754Z,17.80
2023-01-23T14:35:25.942Z,16.93
2023-01-23T14:37:56.856Z,19.17
2023-01-23T14:40:28.782Z,18.03
2023-01-23T14:43:01.788Z,19.20
2023-01-23T14:45:33.094Z,18.57
2023-01-23T14:48:06.487Z,19.17
2023-01-23T14:50:35.577Z,18.40
2023-01-23T14:53:05.755Z,18.30
2023-01-23T14:55:38.405Z,18.77
2023-01-23T14:58:08.747Z,18.70
2023-01-23T15:00:37.618Z,18.63
2023-01-23T15:03:07.077Z,18.50
2023-01-23T15:05:38.589Z,18.50
2023-01-23T15:08:08.373Z,17.67
2023-01-23T15:10:38.207Z,18.30
2023-01-23T15:13:10.252Z,17.70
2023-01-23T15:15:39.142Z,16.67
2023-01-23T15:18:17.169Z,17.27
2023-01-23T15:20:54.006Z,18.20
2023-01-23T15:23:28.392Z,16.87
2023-01-23T15:26:15.359Z,17.57
2023-01-23T15:28:50.423Z,17.77
2023-01-23T15:31:25.220Z,17.60
2023-01-23T15:33:53.767Z,17.60
2023-01-23T15:36:27.035Z,18.87
2023-01-23T15:38:55.945Z,17.97
2023-01-23T15:41:37.854Z,18.57
2023-01-23T15:44:12.427Z,18.13
2023-01-23T15:46:40.807Z,18.27
2023-01-23T15:49:23.528Z,17.33
2023-01-23T15:51:53.791Z,18.67
2023-01-23T15:54:25.006Z,18.13
2023-01-23T15:57:06.492Z,18.17
2023-01-23T15:59:37.938Z,18.10
2023-01-23T16:02:08.278Z,18.27
2023-01-23T16:04:39.660Z,17.23
2023-01-23T16:07:09.400Z,19.20
2023-01-23T16:09:40.635Z,18.63
2023-01-23T16:12:15.248Z,19.47
2023-01-23T16:14:47.429Z,18.90
2023-01-23T16:17:17.355Z,18.47
2023-01-23T16:19:46.181Z,18.27
2023-01-23T16:22:16.567Z,19.10
2023-01-23T16:24:45.355Z,18.47
2023-01-23T16:27:20.495Z,19.33
2023-01-23T16:29:50.527Z,19.73
2023-01-23T16:32:19.492Z,18.43
2023-01-23T16:34:48.809Z,19.37
2023-01-23T16:37:18.242Z,20.67
2023-01-23T16:39:47.715Z,20.77
2023-01-23T16:42:21.946Z,19.83
2023-01-23T16:44:52.306Z,21.43
2023-01-23T16:47:23.010Z,20.27
2023-01-23T16:49:53.625Z,19.37
2023-01-23T16:52:24.452Z,20.07
2023-01-23T16:54:55.348Z,18.83
2023-01-23T16:57:24.576Z,19.47
2023-01-23T16:59:56.583Z,19.37
2023-01-23T17:02:28.926Z,19.60
2023-01-23T17:04:58.134Z,19.90
2023-01-23T17:07:26.936Z,20.80
2023-01-23T17:09:56.965Z,19.93
2023-01-23T17:12:28.583Z,20.93
2023-01-23T17:14:58.781Z,19.83
2023-01-23T17:17:29.575Z,20.17
2023-01-23T17:19:58.142Z,19.37
2023-01-23T17:22:27.832Z,19.67
2023-01-23T17:24:56.203Z,20.70
2023-01-23T17:27:24.726Z,20.70
2023-01-23T17:29:53.200Z,20.23
2023-01-23T17:32:29.495Z,21.07
2023-01-23T17:35:00.105Z,21.57
2023-01-23T17:37:29.395Z,20.10
2023-01-23T17:39:57.911Z,20.90
2023-01-23T17:42:26.328Z,21.67
2023-01-23T17:44:54.815Z,21.67
2023-01-23T17:47:23.511Z,21.97
2023-01-23T17:49:54.616Z,21.97
2023-01-23T17:52:24.923Z,22.00
2023-01-23T17:54:54.506Z,21.13
2023-01-23T17:57:23.558Z,23.63
2023-01-23T17:59:54.860Z,24.00
2023-01-23T18:02:27.230Z,22.73
2023-01-23T18:04:56.788Z,21.27
2023-01-23T18:07:24.941Z,24.07
2023-01-23T18:09:55.489Z,23.40
2023-01-23T18:12:32.217Z,22.03
2023-01-23T18:15:10.121Z,23.97
2023-01-23T18:17:42.370Z,26.57
2023-01-23T18:20:19.478Z,25.60
2023-01-23T18:22:48.233Z,24.47
2023-01-23T18:25:17.536Z,24.27
2023-01-23T18:27:50.226Z,24.03
2023-01-23T18:30:22.156Z,25.03
2023-01-23T18:33:03.680Z,24.70
2023-01-23T18:35:38.635Z,24.87
2023-01-23T18:38:10.303Z,25.73
2023-01-23T18:40:41.980Z,29.00
2023-01-23T18:43:15.578Z,26.60
2023-01-23T18:45:44.324Z,27.93
2023-01-23T18:48:24.592Z,27.10
2023-01-23T18:51:01.750Z,28.43
2023-01-23T18:53:39.386Z,27.57
2023-01-23T18:56:14.176Z,28.00
2023-01-23T18:58:52.330Z,31.53
2023-01-23T19:01:25.722Z,28.40
2023-01-23T19:03:56.869Z,29.87
2023-01-23T19:06:27.414Z,30.90
2023-01-23T19:08:56.576Z,30.83
2023-01-23T19:11:33.698Z,30.73
2023-01-23T19:14:10.180Z,31.37
2023-01-23T19:16:43.234Z,31.83
2023-01-23T19:19:19.828Z,30.97
2023-01-23T19:21:50.328Z,30.10
2023-01-23T19:24:20.413Z,28.53
2023-01-23T19:26:50.109Z,29.77
2023-01-23T19:29:22.322Z,30.93
2023-01-23T19:32:07.229Z,31.07
2023-01-23T19:34:35.942Z,32.70
2023-01-23T19:37:07.269Z,29.63
2023-01-23T19:39:35.642Z,33.23
2023-01-23T19:42:04.578Z,33.83
2023-01-23T19:44:33.786Z,34.63
2023-01-23T19:47:03.434Z,35.50
2023-01-23T19:49:31.895Z,33.40
2023-01-23T19:52:00.097Z,33.33
2023-01-23T19:54:30.061Z,34.27
2023-01-23T19:56:58.398Z,34.30
2023-01-23T19:59:27.322Z,35.03
2023-01-23T20:01:55.867Z,33.53
2023-01-23T20:04:25.384Z,39.30
2023-01-23T20:06:53.770Z,35.37
2023-01-23T20:09:22.567Z,34.73
2023-01-23T20:11:52.638Z,35.47
2023-01-23T20:14:22.167Z,39.63
2023-01-23T20:16:50.666Z,36.47
2023-01-23T20:19:19.852Z,35.27
2023-01-23T20:21:48.716Z,36.97
2023-01-23T20:24:17.455Z,41.83
2023-01-23T20:26:46.441Z,35.33
2023-01-23T20:29:17.529Z,34.50
2023-01-23T20:31:46.638Z,36.17
2023-01-23T20:34:15.315Z,33.63
2023-01-23T20:36:43.717Z,32.80
2023-01-23T20:39:13.187Z,34.80
2023-01-23T20:41:41.762Z,34.17
2023-01-23T20:44:11.662Z,34.87
2023-01-23T20:46:41.431Z,33.43
2023-01-23T20:49:11.237Z,32.97
2023-01-23T20:51:39.613Z,34.87
2023-01-23T20:54:07.040Z,35.37
2023-01-23T20:56:35.951Z,34.03
2023-01-23T20:59:19.210Z,33.73
2023-01-23T21:02:06.603Z,32.43
2023-01-23T21:04:36.464Z,33.70
2023-01-23T21:07:05.967Z,31.27
2023-01-23T21:09:34.139Z,33.60
2023-01-23T21:12:02.584Z,32.73
2023-01-23T21:14:31.664Z,33.13
2023-01-23T21:17:01.735Z,31.20
2023-01-23T21:19:30.952Z,33.87
2023-01-23T21:21:59.703Z,34.27
2023-01-23T21:24:28.709Z,31.07
2023-01-23T21:26:56.888Z,32.53
2023-01-23T21:29:25.124Z,31.80
2023-01-23T21:31:53.656Z,31.37
2023-01-23T21:34:23.630Z,31.70
2023-01-23T21:36:52.397Z,31.27
2023-01-23T21:39:21.223Z,33.10
2023-01-23T21:41:49.624Z,32.17
2023-01-23T21:44:18.083Z,32.30
2023-01-23T21:46:47.337Z,32.10
2023-01-23T21:49:15.763Z,31.37
2023-01-23T21:51:45.912Z,31.53
2023-01-23T21:54:14.582Z,31.60
2023-01-23T21:56:43.809Z,31.30
2023-01-23T21:59:13.097Z,32.00
2023-01-23T22:01:42.835Z,29.87
2023-01-23T22:04:12.746Z,31.60
2023-01-23T22:06:42.257Z,31.67
2023-01-23T22:09:15.942Z,31.80
2023-01-23T22:11:44.878Z,32.10
2023-01-23T22:14:13.626Z,32.80
2023-01-23T22:16:50.587Z,30.83
2023-01-23T22:19:22.574Z,33.30
2023-01-23T22:21:52.815Z,31.20
2023-01-23T22:24:22.904Z,32.03
2023-01-23T22:26:51.395Z,34.47
2023-01-23T22:29:19.835Z,31.07
2023-01-23T22:31:48.349Z,31.93
2023-01-23T22:34:16.880Z,30.37
2023-01-23T22:36:45.276Z,31.53
2023-01-23T22:39:16.119Z,32.13
2023-01-23T22:41:47.272Z,29.87
2023-01-23T22:44:15.713Z,31.07
2023-01-23T22:46:44.558Z,31.23
2023-01-23T22:49:13.219Z,31.30
2023-01-23T22:51:41.607Z,29.50
2023-01-23T22:54:09.992Z,31.23
2023-01-23T22:56:38.557Z,33.07
2023-01-23T22:59:08.340Z,32.60
2023-01-23T23:01:36.730Z,29.73
2023-01-23T23:04:05.482Z,32.90
2023-01-23T23:06:33.862Z,32.27
2023-01-23T23:09:02.304Z,32.37
2023-01-23T23:11:30.748Z,32.70
2023-01-23T23:13:59.726Z,32.47
2023-01-23T23:16:31.059Z,31.03
2023-01-23T23:19:00.737Z,31.67
2023-01-23T23:21:31.615Z,32.63
2023-01-23T23:24:00.636Z,30.73
2023-01-23T23:26:30.081Z,31.13
2023-01-23T23:28:58.575Z,31.97
2023-01-23T23:31:27.406Z,33.30
2023-01-23T23:33:57.183Z,31.83
2023-01-23T23:36:25.709Z,32.10
2023-01-23T23:38:54.188Z,31.10
2023-01-23T23:41:22.599Z,31.57
2023-01-23T23:43:51.086Z,31.93
2023-01-23T23:46:19.545Z,31.07
2023-01-23T23:48:48.343Z,30.73
2023-01-23T23:51:19.643Z,33.00
2023-01-23T23:53:48.430Z,32.50
2023-01-23T23:56:20.557Z,30.67
2023-01-23T23:58:48.974Z,31.43
